Time;durP1;ratioP1;P1;durP2;ratioP2;P2;SDS_P1;SDS_P2;PMS_P1;PMS_P2;Temp;Humidity;BMP_temperature;BMP_pressure;BME280_temperature;BME280_humidity;BME280_pressure;Samples;Min_cycle;Max_cycle;Signal;HPM_P1;HPM_P2
2022/04/15 00:01:55;;;;;;;7.22;5.28;;;21.20;50.90;;;;;;1821867;79;21138;-68
2022/04/15 00:04:22;;;;;;;7.30;6.03;;;21.20;51.00;;;;;;1821588;79;21110;-69
2022/04/15 00:06:50;;;;;;;8.83;6.10;;;21.20;50.90;;;;;;1821578;79;21087;-68
2022/04/15 00:09:17;;;;;;;7.75;5.53;;;21.20;51.00;;;;;;1821378;79;21146;-68
2022/04/15 00:11:51;;;;;;;8.50;6.05;;;21.20;50.90;;;;;;1821598;79;21601;-68
2022/04/15 00:14:19;;;;;;;6.67;5.40;;;21.20;50.90;;;;;;1821597;79;21488;-70
2022/04/15 00:16:46;;;;;;;7.03;5.60;;;21.20;50.80;;;;;;1822318;79;21099;-68
2022/04/15 00:19:13;;;;;;;9.28;6.72;;;21.20;50.80;;;;;;1821799;78;21126;-70
2022/04/15 00:21:41;;;;;;;7.60;6.15;;;21.20;50.80;;;;;;1821658;79;21743;-68
2022/04/15 00:24:08;;;;;;;9.50;5.87;;;21.20;50.70;;;;;;1821770;79;21087;-68
2022/04/15 00:26:35;;;;;;;7.50;6.05;;;21.20;50.70;;;;;;1822050;79;21196;-67
2022/04/15 00:29:06;;;;;;;6.40;5.67;;;21.20;50.70;;;;;;1821712;79;21123;-69
2022/04/15 00:31:32;;;;;;;10.95;6.15;;;21.20;50.70;;;;;;1821719;78;21239;-68
2022/04/15 00:33:59;;;;;;;8.15;6.33;;;21.20;50.60;;;;;;1821805;79;21505;-70
2022/04/15 00:36:27;;;;;;;7.25;6.55;;;21.20;50.70;;;;;;1822095;79;21210;-67
2022/04/15 00:38:54;;;;;;;31.00;6.78;;;21.20;50.60;;;;;;1822099;79;21080;-69
2022/04/15 00:41:22;;;;;;;7.87;6.15;;;21.20;50.60;;;;;;1822088;79;21111;-69
2022/04/15 00:43:51;;;;;;;13.32;6.83;;;21.20;50.60;;;;;;1821877;79;21221;-67
2022/04/15 00:46:18;;;;;;;7.55;5.80;;;21.20;50.60;;;;;;1821768;78;21515;-70
2022/04/15 00:48:45;;;;;;;8.08;6.42;;;21.20;50.50;;;;;;1821976;79;21162;-69
2022/04/15 00:51:13;;;;;;;8.00;6.30;;;21.20;50.50;;;;;;1821784;79;21661;-69
2022/04/15 00:53:40;;;;;;;9.48;6.05;;;21.10;50.50;;;;;;1821840;79;21083;-68
2022/04/15 00:56:08;;;;;;;9.53;6.53;;;21.20;50.50;;;;;;1822162;79;21102;-68
2022/04/15 00:58:36;;;;;;;8.45;6.47;;;21.10;50.40;;;;;;1822068;79;21114;-69
2022/04/15 01:01:05;;;;;;;9.60;6.37;;;21.20;50.50;;;;;;1821803;79;21130;-67
2022/04/15 01:03:32;;;;;;;8.43;6.40;;;21.10;50.50;;;;;;1822072;78;21138;-63
2022/04/15 01:06:00;;;;;;;8.08;6.28;;;21.20;50.50;;;;;;1821673;79;21142;-66
2022/04/15 01:08:28;;;;;;;8.80;6.10;;;21.20;50.40;;;;;;1821712;78;21123;-60
2022/04/15 01:10:58;;;;;;;7.33;6.53;;;21.10;50.40;;;;;;1829479;78;21165;-67
2022/04/15 01:13:26;;;;;;;11.53;6.58;;;21.10;50.30;;;;;;1843750;78;21098;-62
2022/04/15 01:15:56;;;;;;;9.05;7.47;;;21.10;50.30;;;;;;1844293;78;21800;-64
2022/04/15 01:18:23;;;;;;;10.13;6.20;;;21.10;50.30;;;;;;1844186;78;21626;-63
2022/04/15 01:20:52;;;;;;;8.05;7.03;;;21.10;50.20;;;;;;1844085;78;21110;-66
2022/04/15 01:23:19;;;;;;;10.08;6.80;;;21.10;50.20;;;;;;1844015;77;21149;-62
2022/04/15 01:25:47;;;;;;;8.98;7.15;;;21.10;50.80;;;;;;1843902;77;21125;-60
2022/04/15 01:28:19;;;;;;;7.58;6.42;;;21.10;50.20;;;;;;1843508;78;22283;-63
2022/04/15 01:30:44;;;;;;;7.37;6.67;;;21.10;50.20;;;;;;1841464;77;21157;-62
2022/04/15 01:33:11;;;;;;;7.60;6.72;;;21.10;50.20;;;;;;1844043;78;21169;-65
2022/04/15 01:35:39;;;;;;;7.37;6.50;;;21.10;50.20;;;;;;1844018;78;21113;-64
2022/04/15 01:38:07;;;;;;;8.43;6.28;;;21.10;50.70;;;;;;1843663;78;21125;-62
2022/04/15 01:40:35;;;;;;;8.20;6.55;;;21.10;50.20;;;;;;1843671;78;21142;-62
2022/04/15 01:43:02;;;;;;;8.58;6.97;;;21.10;50.10;;;;;;1843767;78;21094;-67
2022/04/15 01:45:29;;;;;;;8.25;6.30;;;21.10;50.20;;;;;;1843562;78;21382;-62
2022/04/15 01:47:57;;;;;;;8.90;6.72;;;21.10;50.10;;;;;;1843672;77;22019;-61
2022/04/15 01:50:24;;;;;;;7.60;6.33;;;21.00;50.10;;;;;;1843895;78;21090;-59
2022/04/15 01:52:51;;;;;;;8.25;6.17;;;21.10;50.10;;;;;;1843620;76;22257;-61
2022/04/15 01:55:19;;;;;;;8.95;6.65;;;21.10;50.10;;;;;;1843843;78;21090;-60
2022/04/15 01:57:46;;;;;;;7.42;6.45;;;21.00;50.00;;;;;;1843784;78;21683;-66
2022/04/15 02:00:13;;;;;;;8.30;6.53;;;21.10;50.10;;;;;;1793918;78;21199;-66
2022/04/15 02:02:41;;;;;;;9.13;6.92;;;21.10;50.10;;;;;;1789833;80;22255;-61
2022/04/15 02:05:08;;;;;;;7.87;6.90;;;21.10;50.00;;;;;;1789583;79;21141;-63
2022/04/15 02:07:36;;;;;;;6.92;6.22;;;21.00;50.00;;;;;;1789731;79;21117;-62
2022/04/15 02:10:04;;;;;;;7.50;6.80;;;21.00;49.90;;;;;;1789605;78;21152;-64
2022/04/15 02:12:31;;;;;;;6.75;6.15;;;21.00;49.90;;;;;;1789695;80;21157;-66
2022/04/15 02:14:59;;;;;;;7.35;6.65;;;21.00;49.90;;;;;;1789841;80;21105;-63
2022/04/15 02:17:26;;;;;;;8.15;7.30;;;21.00;49.90;;;;;;1789822;79;21129;-63
2022/04/15 02:19:53;;;;;;;13.50;6.97;;;21.00;49.90;;;;;;1789636;79;21042;-62
2022/04/15 02:22:21;;;;;;;9.58;6.92;;;21.00;49.90;;;;;;1789807;80;21718;-68
2022/04/15 02:24:48;;;;;;;7.65;6.83;;;21.00;49.60;;;;;;1789888;79;21188;-67
2022/04/15 02:27:15;;;;;;;7.37;6.67;;;21.00;49.80;;;;;;1789917;80;21654;-66
2022/04/15 02:29:43;;;;;;;6.87;5.83;;;21.00;49.80;;;;;;1829320;78;21091;-64
2022/04/15 02:32:10;;;;;;;6.92;6.22;;;21.00;49.80;;;;;;1843971;78;21513;-67
2022/04/15 02:34:37;;;;;;;8.93;6.95;;;21.00;49.80;;;;;;1843853;78;21098;-64
2022/04/15 02:37:05;;;;;;;7.30;6.37;;;21.00;49.90;;;;;;1844073;78;21638;-67
2022/04/15 02:39:32;;;;;;;8.58;7.62;;;21.00;49.80;;;;;;1843908;78;22174;-66
2022/04/15 02:42:00;;;;;;;7.85;7.10;;;21.00;49.90;;;;;;1843720;76;21122;-65
2022/04/15 02:44:29;;;;;;;7.75;6.80;;;21.00;49.90;;;;;;1843530;78;21207;-62
2022/04/15 02:46:58;;;;;;;8.63;6.83;;;21.00;49.80;;;;;;1843354;78;21125;-66
2022/04/15 02:49:28;;;;;;;8.70;6.83;;;21.00;50.30;;;;;;1843444;77;21223;-61
2022/04/15 02:51:56;;;;;;;7.40;6.50;;;21.00;49.80;;;;;;1843690;78;21662;-65
2022/04/15 02:54:24;;;;;;;8.35;6.58;;;21.00;49.70;;;;;;1841060;78;21149;-64
2022/04/15 02:56:51;;;;;;;7.53;6.70;;;21.00;49.70;;;;;;1806371;79;21121;-66
2022/04/15 02:59:20;;;;;;;7.95;7.15;;;21.00;49.80;;;;;;1806923;79;21479;-64
2022/04/15 03:01:49;;;;;;;7.20;6.50;;;21.00;49.70;;;;;;1806153;79;21220;-63
2022/04/15 03:04:16;;;;;;;7.10;6.40;;;21.00;49.70;;;;;;1805742;79;21220;-64
2022/04/15 03:06:44;;;;;;;7.60;6.80;;;21.00;49.70;;;;;;1805948;79;21102;-66
2022/04/15 03:09:11;;;;;;;9.20;7.33;;;21.00;49.70;;;;;;1805847;79;21098;-64
2022/04/15 03:11:38;;;;;;;7.12;6.40;;;21.00;49.70;;;;;;1812267;78;21157;-65
2022/04/15 03:14:06;;;;;;;7.58;6.75;;;21.00;49.70;;;;;;1812905;79;21620;-61
2022/04/15 03:16:33;;;;;;;9.23;6.75;;;21.00;49.70;;;;;;1806549;79;21123;-63
2022/04/15 03:19:01;;;;;;;7.67;6.92;;;20.90;49.70;;;;;;1806647;79;21079;-66
2022/04/15 03:21:28;;;;;;;6.80;6.10;;;21.00;49.80;;;;;;1806311;79;21063;-67
2022/04/15 03:23:55;;;;;;;7.72;6.92;;;21.00;49.70;;;;;;1806360;79;21695;-60
2022/04/15 03:26:23;;;;;;;7.53;6.72;;;21.00;49.70;;;;;;1806221;79;21070;-66
2022/04/15 03:28:50;;;;;;;7.70;6.72;;;21.00;49.70;;;;;;1805954;79;21555;-65
2022/04/15 03:31:17;;;;;;;7.00;6.25;;;21.00;49.70;;;;;;1806547;79;21102;-65
2022/04/15 03:33:45;;;;;;;10.50;7.03;;;21.00;49.60;;;;;;1806445;79;21137;-68
2022/04/15 03:36:12;;;;;;;8.95;6.92;;;21.00;49.70;;;;;;1806181;79;21087;-66
2022/04/15 03:38:40;;;;;;;7.28;6.50;;;21.00;49.70;;;;;;1806496;79;21109;-65
2022/04/15 03:41:07;;;;;;;7.60;6.90;;;21.00;49.70;;;;;;1806195;78;21607;-66
2022/04/15 03:43:35;;;;;;;6.85;6.15;;;20.90;49.60;;;;;;1806234;79;21165;-60
2022/04/15 03:46:02;;;;;;;7.45;6.67;;;20.90;49.70;;;;;;1806460;79;21130;-66
2022/04/15 03:48:29;;;;;;;8.00;6.67;;;20.90;49.60;;;;;;1806277;79;21180;-64
2022/04/15 03:50:57;;;;;;;8.30;6.95;;;20.90;49.60;;;;;;1806421;79;21134;-65
2022/04/15 03:53:24;;;;;;;8.15;7.33;;;20.90;49.50;;;;;;1806121;79;21502;-64
2022/04/15 03:55:52;;;;;;;7.83;6.33;;;20.90;49.40;;;;;;1806316;79;21623;-65
2022/04/15 03:58:19;;;;;;;7.20;6.50;;;20.90;49.50;;;;;;1806253;79;21118;-65
2022/04/15 04:00:47;;;;;;;7.17;6.47;;;20.90;49.90;;;;;;1806549;79;21140;-64
2022/04/15 04:03:14;;;;;;;7.28;6.33;;;20.90;49.50;;;;;;1806440;79;21095;-67
2022/04/15 04:05:41;;;;;;;7.42;6.60;;;20.90;49.50;;;;;;1806443;79;21603;-64
2022/04/15 04:08:09;;;;;;;7.78;6.62;;;20.90;49.50;;;;;;1806474;79;21114;-66
2022/04/15 04:10:36;;;;;;;6.72;6.08;;;20.90;49.50;;;;;;1806310;79;22141;-67
2022/04/15 04:13:03;;;;;;;7.22;6.53;;;20.90;49.50;;;;;;1804618;79;21228;-64
2022/04/15 04:15:31;;;;;;;7.83;7.03;;;20.90;49.50;;;;;;1805451;79;21584;-65
2022/04/15 04:17:59;;;;;;;6.58;5.97;;;20.90;49.50;;;;;;1806162;79;21180;-66
2022/04/15 04:20:26;;;;;;;7.47;6.40;;;20.90;49.50;;;;;;1806100;79;21118;-67
2022/04/15 04:22:53;;;;;;;7.53;6.75;;;20.90;49.50;;;;;;1806040;79;21098;-65
2022/04/15 04:25:21;;;;;;;8.25;7.17;;;20.90;49.50;;;;;;1806354;79;21188;-65
2022/04/15 04:27:48;;;;;;;7.53;6.72;;;20.90;49.40;;;;;;1806351;79;21576;-65
2022/04/15 04:30:16;;;;;;;6.83;6.17;;;20.90;49.40;;;;;;1805159;79;21130;-66
2022/04/15 04:32:49;;;;;;;6.78;6.08;;;20.90;49.40;;;;;;1806120;79;21208;-64
2022/04/15 04:35:17;;;;;;;6.87;6.15;;;20.90;49.40;;;;;;1806073;79;21564;-67
2022/04/15 04:37:45;;;;;;;6.67;6.05;;;20.90;49.40;;;;;;1806027;79;21122;-67
2022/04/15 04:40:13;;;;;;;6.97;6.28;;;20.80;49.40;;;;;;1806306;79;21125;-68
2022/04/15 04:42:40;;;;;;;7.20;6.33;;;20.90;49.40;;;;;;1806401;79;21114;-65
2022/04/15 04:45:10;;;;;;;9.83;6.40;;;20.90;49.40;;;;;;1806614;79;21191;-66
2022/04/15 04:47:39;;;;;;;7.05;6.35;;;20.90;49.40;;;;;;1806629;79;21195;-69
2022/04/15 04:50:12;;;;;;;6.72;6.10;;;20.90;49.90;;;;;;1806379;79;21110;-61
2022/04/15 04:52:37;;;;;;;8.30;6.40;;;20.90;49.40;;;;;;1806209;79;21517;-68
2022/04/15 04:55:06;;;;;;;6.90;6.03;;;20.90;49.70;;;;;;1806681;78;21066;-65
2022/04/15 04:57:33;;;;;;;7.12;6.40;;;20.90;49.30;;;;;;1806512;79;21145;-68
2022/04/15 05:00:01;;;;;;;8.25;6.62;;;20.80;49.30;;;;;;1806319;79;21098;-68
2022/04/15 05:02:28;;;;;;;7.70;6.90;;;20.90;49.30;;;;;;1806163;79;21125;-67
2022/04/15 05:04:55;;;;;;;6.75;6.05;;;20.80;49.20;;;;;;1806472;78;21258;-66
2022/04/15 05:07:23;;;;;;;6.78;6.08;;;20.90;49.30;;;;;;1806456;79;21062;-68
2022/04/15 05:09:51;;;;;;;6.95;6.25;;;20.90;49.30;;;;;;1806252;79;21125;-66
2022/04/15 05:12:19;;;;;;;6.40;5.80;;;20.80;49.20;;;;;;1806362;78;21564;-67
2022/04/15 05:14:46;;;;;;;7.55;6.60;;;20.80;49.20;;;;;;1806227;79;21118;-65
2022/04/15 05:17:13;;;;;;;6.65;5.90;;;20.80;49.20;;;;;;1806048;79;21513;-67
2022/04/15 05:19:41;;;;;;;6.78;6.08;;;20.80;49.20;;;;;;1806083;79;21117;-62
2022/04/15 05:22:09;;;;;;;7.17;5.58;;;20.80;49.10;;;;;;1806164;79;21643;-66
2022/04/15 05:24:37;;;;;;;7.47;6.50;;;20.80;49.20;;;;;;1806596;79;21106;-65
2022/04/15 05:27:05;;;;;;;6.65;5.95;;;20.80;49.20;;;;;;1806723;79;21161;-67
2022/04/15 05:29:32;;;;;;;6.17;5.58;;;20.80;49.10;;;;;;1806409;78;21629;-65
2022/04/15 05:32:00;;;;;;;7.85;7.05;;;20.80;49.10;;;;;;1806401;79;22303;-67
2022/04/15 05:34:27;;;;;;;6.75;6.00;;;20.90;49.20;;;;;;1806339;79;21460;-66
2022/04/15 05:36:55;;;;;;;8.03;5.97;;;20.80;49.10;;;;;;1806422;79;21125;-68
2022/04/15 05:39:22;;;;;;;8.43;5.80;;;20.80;49.10;;;;;;1806409;78;21091;-61
2022/04/15 05:41:49;;;;;;;6.35;5.75;;;20.80;49.10;;;;;;1806432;79;21226;-66
2022/04/15 05:44:16;;;;;;;6.53;5.92;;;20.80;49.10;;;;;;1806382;79;21123;-66
2022/04/15 05:46:44;;;;;;;7.28;6.08;;;20.80;49.10;;;;;;1806574;79;21125;-67
2022/04/15 05:49:15;;;;;;;7.08;6.37;;;20.80;49.10;;;;;;1806494;79;21146;-61
2022/04/15 05:51:43;;;;;;;8.05;7.00;;;20.80;49.10;;;;;;1806525;79;21388;-65
2022/04/15 05:54:10;;;;;;;7.42;6.15;;;20.80;49.10;;;;;;1805599;79;21138;-66
2022/04/15 05:56:38;;;;;;;7.72;6.15;;;20.80;49.10;;;;;;1806294;79;21211;-65
2022/04/15 05:59:05;;;;;;;7.22;5.85;;;20.80;49.10;;;;;;1806117;79;21134;-65
2022/04/15 06:01:32;;;;;;;6.60;5.97;;;20.80;49.10;;;;;;1806063;79;21216;-67
2022/04/15 06:04:00;;;;;;;7.08;6.33;;;20.80;49.10;;;;;;1806069;78;21145;-68
2022/04/15 06:06:27;;;;;;;5.85;5.35;;;20.80;49.10;;;;;;1806090;79;21121;-67
2022/04/15 06:08:54;;;;;;;6.53;5.92;;;20.80;49.60;;;;;;1805737;78;21090;-66
2022/04/15 06:11:22;;;;;;;6.72;5.97;;;20.80;49.10;;;;;;1806071;79;21098;-63
2022/04/15 06:13:50;;;;;;;6.20;5.60;;;20.80;49.10;;;;;;1806034;79;21238;-67
2022/04/15 06:16:17;;;;;;;8.03;6.45;;;20.80;49.10;;;;;;1782609;80;21212;-67
2022/04/15 06:18:45;;;;;;;6.85;6.15;;;20.80;49.10;;;;;;1797363;80;21119;-63
2022/04/15 06:21:12;;;;;;;7.10;6.15;;;20.80;49.10;;;;;;1805801;79;21121;-65
2022/04/15 06:23:39;;;;;;;6.10;5.50;;;20.80;49.10;;;;;;1806210;79;21219;-65
2022/04/15 06:26:07;;;;;;;6.33;5.65;;;20.80;49.10;;;;;;1806393;79;21114;-64
2022/04/15 06:28:34;;;;;;;6.87;6.17;;;20.80;49.10;;;;;;1806341;79;22364;-65
2022/04/15 06:31:01;;;;;;;5.75;5.25;;;20.80;49.00;;;;;;1806165;79;21113;-66
2022/04/15 06:33:29;;;;;;;7.30;6.10;;;20.80;49.10;;;;;;1806131;79;21589;-65
2022/04/15 06:35:56;;;;;;;6.95;6.25;;;20.80;49.00;;;;;;1806299;79;21133;-66
2022/04/15 06:38:23;;;;;;;5.95;5.35;;;20.80;49.00;;;;;;1806336;79;21114;-67
2022/04/15 06:40:51;;;;;;;6.12;5.53;;;20.80;49.00;;;;;;1806271;78;21138;-66
2022/04/15 06:43:18;;;;;;;6.10;5.50;;;20.80;49.60;;;;;;1806251;78;21157;-67
2022/04/15 06:45:45;;;;;;;6.42;5.75;;;20.80;49.00;;;;;;1806384;79;21526;-64
2022/04/15 06:48:13;;;;;;;6.70;5.10;;;20.80;49.00;;;;;;1806586;79;21203;-63
2022/04/15 06:50:40;;;;;;;6.33;5.45;;;20.80;49.00;;;;;;1806283;79;21548;-66
2022/04/15 06:53:07;;;;;;;6.53;5.45;;;20.80;49.00;;;;;;1806052;78;21181;-66
2022/04/15 06:55:35;;;;;;;7.12;5.35;;;20.80;49.00;;;;;;1805834;79;21204;-63
2022/04/15 06:58:02;;;;;;;6.37;5.55;;;20.80;49.00;;;;;;1805720;79;22124;-63
2022/04/15 07:00:30;;;;;;;6.67;5.30;;;20.80;49.00;;;;;;1805970;79;21114;-66
2022/04/15 07:02:58;;;;;;;5.90;5.15;;;20.80;49.00;;;;;;1806001;79;21153;-62
2022/04/15 07:05:25;;;;;;;6.35;5.55;;;20.80;49.00;;;;;;1806353;78;21216;-67
2022/04/15 07:07:52;;;;;;;6.60;5.55;;;20.70;48.90;;;;;;1806305;79;21124;-66
2022/04/15 07:10:20;;;;;;;6.37;5.78;;;20.80;49.00;;;;;;1806323;79;21130;-65
2022/04/15 07:12:48;;;;;;;6.03;5.40;;;20.80;48.90;;;;;;1805931;78;21109;-67
2022/04/15 07:15:15;;;;;;;5.67;5.15;;;20.80;49.00;;;;;;1806445;79;21220;-66
2022/04/15 07:17:43;;;;;;;5.67;5.08;;;20.80;49.40;;;;;;1806158;78;21098;-66
2022/04/15 07:20:11;;;;;;;8.20;6.20;;;20.80;49.00;;;;;;1806451;79;21212;-66
2022/04/15 07:22:38;;;;;;;6.10;5.25;;;20.80;49.00;;;;;;1806442;79;21153;-63
2022/04/15 07:25:06;;;;;;;6.10;5.15;;;20.80;49.00;;;;;;1806693;79;21128;-65
2022/04/15 07:27:33;;;;;;;5.62;5.12;;;20.80;49.00;;;;;;1806621;78;21113;-67
2022/04/15 07:30:01;;;;;;;6.72;5.75;;;20.80;49.00;;;;;;1806509;78;21552;-66
2022/04/15 07:32:29;;;;;;;6.40;5.80;;;20.80;48.90;;;;;;1806444;79;21608;-64
2022/04/15 07:34:56;;;;;;;6.92;5.92;;;20.80;49.00;;;;;;1806336;79;21160;-66
2022/04/15 07:37:23;;;;;;;6.50;5.70;;;20.80;49.00;;;;;;1806547;79;21086;-66
2022/04/15 07:39:51;;;;;;;6.15;5.50;;;20.80;48.90;;;;;;1806270;79;21110;-66
2022/04/15 07:42:18;;;;;;;6.55;5.87;;;20.80;49.00;;;;;;1806400;79;21121;-66
2022/04/15 07:44:45;;;;;;;5.72;5.05;;;20.80;48.90;;;;;;1806827;79;21129;-66
2022/04/15 07:47:13;;;;;;;7.08;6.17;;;20.80;49.00;;;;;;1806702;79;21075;-65
2022/04/15 07:49:40;;;;;;;6.90;5.53;;;20.80;48.90;;;;;;1806363;79;21176;-61
2022/04/15 07:52:08;;;;;;;5.75;5.15;;;20.80;48.90;;;;;;1806388;79;21133;-63
2022/04/15 07:54:35;;;;;;;6.28;5.65;;;20.80;48.90;;;;;;1806394;79;21145;-64
2022/04/15 07:57:03;;;;;;;5.95;5.20;;;20.80;49.00;;;;;;1806371;79;21106;-66
2022/04/15 07:59:30;;;;;;;5.72;5.15;;;20.80;49.00;;;;;;1806365;79;21118;-65
2022/04/15 08:01:58;;;;;;;5.70;5.10;;;20.80;49.10;;;;;;1806406;79;21086;-66
2022/04/15 08:04:26;;;;;;;6.22;5.62;;;20.80;49.10;;;;;;1806295;79;21170;-69
2022/04/15 08:06:53;;;;;;;5.85;5.25;;;20.80;49.10;;;;;;1806288;79;21134;-69
2022/04/15 08:09:21;;;;;;;6.28;5.67;;;20.80;49.10;;;;;;1806565;79;21195;-67
2022/04/15 08:11:49;;;;;;;5.78;5.22;;;20.80;49.00;;;;;;1806377;79;21157;-67
2022/04/15 08:14:16;;;;;;;5.95;5.08;;;20.80;49.10;;;;;;1806983;79;21177;-61
2022/04/15 08:16:43;;;;;;;7.45;5.72;;;20.80;49.10;;;;;;1806426;79;21039;-63
2022/04/15 08:19:11;;;;;;;5.92;5.33;;;20.80;49.10;;;;;;1806412;79;21113;-66
2022/04/15 08:21:38;;;;;;;5.58;5.08;;;20.80;49.10;;;;;;1806425;79;21106;-65
2022/04/15 08:24:06;;;;;;;6.75;5.60;;;20.80;49.10;;;;;;1806244;79;21587;-67
2022/04/15 08:26:33;;;;;;;6.55;5.40;;;20.80;49.00;;;;;;1827254;78;21059;-65
2022/04/15 08:29:01;;;;;;;6.17;5.47;;;20.90;49.10;;;;;;1842938;78;21125;-62
2022/04/15 08:31:28;;;;;;;6.00;5.37;;;20.80;49.10;;;;;;1823572;78;21077;-67
2022/04/15 08:33:55;;;;;;;6.05;4.60;;;20.80;49.20;;;;;;1807216;78;21375;-68
2022/04/15 08:36:23;;;;;;;6.95;6.10;;;20.90;49.20;;;;;;1807637;79;21136;-66
2022/04/15 08:38:51;;;;;;;6.10;5.50;;;20.80;49.20;;;;;;1808185;79;21134;-63
2022/04/15 08:41:18;;;;;;;6.28;5.67;;;20.80;49.20;;;;;;1808150;79;21171;-66
2022/04/15 08:43:46;;;;;;;5.83;5.28;;;20.80;49.30;;;;;;1808422;78;21122;-64
2022/04/15 08:46:13;;;;;;;5.95;5.35;;;20.90;49.40;;;;;;1807917;79;21105;-67
2022/04/15 08:48:40;;;;;;;5.47;4.92;;;20.80;49.30;;;;;;1808277;79;21141;-64
2022/04/15 08:51:08;;;;;;;5.78;5.10;;;20.80;49.30;;;;;;1824390;77;21402;-67
2022/04/15 08:53:36;;;;;;;6.75;5.35;;;20.80;49.30;;;;;;1814614;78;21175;-72
2022/04/15 08:56:04;;;;;;;5.70;5.05;;;20.90;49.30;;;;;;1812118;79;21124;-59
2022/04/15 08:58:31;;;;;;;7.42;5.25;;;20.90;49.30;;;;;;1813670;78;21111;-68
2022/04/15 09:00:59;;;;;;;5.58;4.78;;;21.00;49.30;;;;;;1812145;79;21111;-65
2022/04/15 09:03:26;;;;;;;6.20;5.15;;;20.90;49.30;;;;;;1822528;76;21143;-68
2022/04/15 09:05:54;;;;;;;9.53;5.30;;;20.90;49.40;;;;;;1828931;77;21125;-69
2022/04/15 09:08:21;;;;;;;7.03;5.42;;;20.90;49.30;;;;;;1813144;79;21550;-68
2022/04/15 09:10:56;;;;;;;7.05;5.53;;;20.90;49.40;;;;;;1812465;78;21652;-69
2022/04/15 09:13:28;;;;;;;7.25;6.10;;;20.80;49.50;;;;;;1814670;78;21140;-68
2022/04/15 09:15:54;;;;;;;8.13;6.00;;;20.80;49.50;;;;;;1811554;78;21152;-69
2022/04/15 09:18:36;;;;;;;7.62;5.85;;;20.80;49.60;;;;;;1812140;78;21112;-69
2022/04/15 09:21:24;;;;;;;8.13;6.40;;;20.80;49.80;;;;;;1811073;79;21116;-69
2022/04/15 09:23:52;;;;;;;6.92;5.65;;;20.80;49.80;;;;;;1812743;78;21152;-69
2022/04/15 09:26:20;;;;;;;9.95;6.10;;;20.80;50.00;;;;;;1812363;78;21546;-67
2022/04/15 09:28:48;;;;;;;7.62;5.95;;;20.80;49.90;;;;;;1812985;79;21119;-68
2022/04/15 09:31:17;;;;;;;6.67;5.97;;;20.70;50.00;;;;;;1812351;77;21112;-68
2022/04/15 09:33:52;;;;;;;6.70;5.67;;;20.70;50.10;;;;;;1813421;77;21587;-66
2022/04/15 09:36:29;;;;;;;12.33;7.30;;;20.70;50.20;;;;;;1813319;79;22304;-64
2022/04/15 09:39:10;;;;;;;14.30;9.58;;;20.70;51.80;;;;;;1813365;78;21147;-63
2022/04/15 09:41:36;;;;;;;12.93;9.50;;;20.30;52.10;;;;;;1804038;79;21677;-61
2022/04/15 09:44:03;;;;;;;13.88;8.20;;;19.90;52.50;;;;;;1812474;78;21140;-63
2022/04/15 09:46:31;;;;;;;12.78;8.60;;;19.80;52.60;;;;;;1809720;78;21127;-67
2022/04/15 09:49:02;;;;;;;13.32;8.58;;;19.70;53.30;;;;;;1813551;79;21128;-66
2022/04/15 09:51:33;;;;;;;14.95;9.15;;;19.60;53.80;;;;;;1814970;78;21147;-65
2022/04/15 09:54:01;;;;;;;12.53;10.03;;;19.60;53.30;;;;;;1815398;78;21150;-61
2022/04/15 09:56:28;;;;;;;12.88;8.63;;;19.40;52.90;;;;;;1812472;78;21178;-64
2022/04/15 09:58:56;;;;;;;11.45;8.30;;;19.30;53.50;;;;;;1812696;77;21577;-63
2022/04/15 10:01:23;;;;;;;14.70;7.70;;;19.30;53.50;;;;;;1798719;79;21168;-62
2022/04/15 10:03:51;;;;;;;12.98;8.78;;;19.30;53.50;;;;;;1812105;78;21132;-65
2022/04/15 10:06:18;;;;;;;14.28;7.30;;;19.40;53.50;;;;;;1813592;78;21238;-64
2022/04/15 10:08:45;;;;;;;12.37;7.45;;;19.30;53.50;;;;;;1812986;78;21620;-66
2022/04/15 10:11:13;;;;;;;10.08;7.12;;;19.30;53.70;;;;;;1813727;79;21119;-63
2022/04/15 10:13:40;;;;;;;12.07;6.90;;;19.40;53.90;;;;;;1813465;77;22381;-65
2022/04/15 10:16:08;;;;;;;13.98;7.80;;;19.40;54.30;;;;;;1813377;78;21236;-66
2022/04/15 10:18:35;;;;;;;14.45;8.48;;;19.40;54.20;;;;;;1779506;79;21112;-64
2022/04/15 10:21:03;;;;;;;10.82;6.60;;;19.40;54.00;;;;;;1813427;78;21230;-63
2022/04/15 10:23:30;;;;;;;9.68;6.72;;;19.40;54.80;;;;;;1813312;78;21140;-68
2022/04/15 10:26:01;;;;;;;9.28;6.50;;;19.40;53.40;;;;;;1813388;77;21099;-64
2022/04/15 10:28:40;;;;;;;14.75;7.42;;;19.50;53.20;;;;;;1812844;78;21127;-65
2022/04/15 10:31:11;;;;;;;13.13;8.15;;;19.60;53.20;;;;;;1812296;77;21162;-63
2022/04/15 10:33:43;;;;;;;13.85;7.40;;;19.70;53.30;;;;;;1812744;78;21147;-59
2022/04/15 10:36:13;;;;;;;11.12;5.87;;;19.70;53.40;;;;;;1812847;78;21135;-65
2022/04/15 10:39:06;;;;;;;11.57;6.95;;;19.60;52.80;;;;;;1813732;78;21128;-64
2022/04/15 10:41:52;;;;;;;13.25;8.23;;;19.70;51.80;;;;;;1813050;78;21096;-65
2022/04/15 10:44:27;;;;;;;13.08;8.83;;;19.60;51.10;;;;;;1813054;78;21145;-61
2022/04/15 10:47:00;;;;;;;13.22;7.58;;;19.60;51.40;;;;;;1813901;79;21111;-59
2022/04/15 10:49:30;;;;;;;12.78;7.97;;;19.50;51.00;;;;;;1779903;78;21128;-67
2022/04/15 10:52:06;;;;;;;13.60;8.50;;;19.60;51.80;;;;;;1810563;78;21139;-67
2022/04/15 10:54:39;;;;;;;10.75;7.55;;;19.60;50.90;;;;;;1808410;77;21124;-63
2022/04/15 10:57:11;;;;;;;11.57;7.83;;;19.60;51.80;;;;;;1810348;77;21193;-64
2022/04/15 11:02:25;;;;;;;10.63;6.47;;;19.60;49.90;;;;;;1812131;78;21164;-62
2022/04/15 11:04:52;;;;;;;10.30;6.80;;;19.60;50.40;;;;;;1805552;79;21099;-64
2022/04/15 11:07:27;;;;;;;9.03;5.97;;;19.60;50.20;;;;;;1810847;78;21124;-64
2022/04/15 11:09:55;;;;;;;8.48;5.10;;;19.60;50.90;;;;;;1811572;78;21139;-60
2022/04/15 11:12:37;;;;;;;9.50;5.50;;;19.70;50.80;;;;;;1811992;78;21423;-65
2022/04/15 11:15:05;;;;;;;10.32;5.87;;;19.70;50.70;;;;;;1813454;79;21119;-65
2022/04/15 11:17:47;;;;;;;10.68;5.50;;;19.70;50.10;;;;;;1813488;78;21107;-65
2022/04/15 11:20:14;;;;;;;10.40;4.45;;;19.70;50.30;;;;;;1812750;79;21194;-69
2022/04/15 11:22:44;;;;;;;11.18;4.33;;;19.60;49.00;;;;;;1814015;78;21143;-68
2022/04/15 11:25:12;;;;;;;6.62;4.85;;;19.70;48.90;;;;;;1814013;79;21084;-66
2022/04/15 11:27:41;;;;;;;9.48;4.15;;;19.70;48.40;;;;;;1811187;78;21206;-62
2022/04/15 11:30:12;;;;;;;5.47;3.12;;;19.60;48.20;;;;;;1810400;79;21065;-67
2022/04/15 11:32:48;;;;;;;7.60;3.10;;;19.60;47.40;;;;;;1810354;78;21220;-66
2022/04/15 11:35:30;;;;;;;4.75;2.45;;;19.60;46.20;;;;;;1813525;78;21658;-65
2022/04/15 11:37:58;;;;;;;2.80;2.27;;;19.60;45.60;;;;;;1810313;78;21423;-66
2022/04/15 11:40:28;;;;;;;2.70;1.80;;;19.60;45.30;;;;;;1798507;79;21112;-66
2022/04/15 11:43:01;;;;;;;2.80;1.50;;;19.50;45.40;;;;;;1812827;78;21160;-61
2022/04/15 11:45:35;;;;;;;2.10;1.10;;;19.60;43.80;;;;;;1813273;79;21135;-64
2022/04/15 11:48:16;;;;;;;3.27;1.10;;;19.50;43.20;;;;;;1814388;78;21185;-63
2022/04/15 11:50:44;;;;;;;8.93;1.15;;;19.50;43.20;;;;;;1812801;78;21225;-67
2022/04/15 11:53:13;;;;;;;1.87;1.00;;;19.60;43.20;;;;;;1813779;78;21155;-63
2022/04/15 11:55:54;;;;;;;31.42;1.62;;;19.50;43.40;;;;;;1812180;78;21617;-66
2022/04/15 11:58:25;;;;;;;3.95;1.20;;;19.60;43.20;;;;;;1811787;78;22313;-64
2022/04/15 12:00:57;;;;;;;2.00;1.02;;;19.60;43.00;;;;;;1813683;78;21120;-65
2022/04/15 12:03:24;;;;;;;2.50;1.30;;;19.70;43.60;;;;;;1811608;77;21163;-65
2022/04/15 12:05:52;;;;;;;3.37;1.07;;;19.70;42.40;;;;;;1810047;78;21175;-66
2022/04/15 12:08:20;;;;;;;1.32;0.98;;;19.70;40.50;;;;;;1813775;78;21165;-65
2022/04/15 12:10:49;;;;;;;2.77;1.10;;;19.80;39.30;;;;;;1815285;79;21119;-63
2022/04/15 12:13:17;;;;;;;3.65;1.17;;;19.70;39.10;;;;;;1812233;78;21606;-66
2022/04/15 12:15:45;;;;;;;2.72;1.10;;;19.80;39.50;;;;;;1807346;79;21096;-67
2022/04/15 12:18:12;;;;;;;4.42;1.22;;;19.80;39.80;;;;;;1776848;80;21124;-66
2022/04/15 12:20:40;;;;;;;4.78;1.50;;;19.80;40.20;;;;;;1777038;80;21136;-65
2022/04/15 12:23:13;;;;;;;6.67;1.60;;;19.80;40.80;;;;;;1776778;79;21140;-66
2022/04/15 12:31:33;;;;;;;7.78;1.87;;;19.90;41.70;;;;;;1776474;80;21216;-66
2022/04/15 12:34:02;;;;;;;3.05;1.77;;;20.00;42.70;;;;;;1776528;79;21359;-63
2022/04/15 12:36:47;;;;;;;4.12;2.17;;;20.00;43.10;;;;;;1776695;81;21399;-63
2022/04/15 12:39:15;;;;;;;4.90;1.98;;;20.10;43.60;;;;;;1776508;80;21156;-65
2022/04/15 12:41:51;;;;;;;6.70;1.95;;;20.10;43.90;;;;;;1776141;80;21112;-61
2022/04/15 12:44:23;;;;;;;3.55;1.65;;;20.00;44.80;;;;;;1775618;80;21200;-62
2022/04/15 12:46:51;;;;;;;8.15;2.05;;;19.90;44.50;;;;;;1776241;80;21151;-63
2022/04/15 12:49:23;;;;;;;2.75;1.90;;;19.90;45.10;;;;;;1824715;78;21191;-62
2022/04/15 12:51:50;;;;;;;4.00;2.60;;;19.80;45.40;;;;;;1828549;77;21137;-61
2022/04/15 12:54:17;;;;;;;3.47;2.02;;;19.80;46.10;;;;;;1829216;78;21185;-61
2022/04/15 12:57:00;;;;;;;3.42;2.40;;;19.90;45.40;;;;;;1829351;78;21114;-64
2022/04/15 12:59:27;;;;;;;4.87;2.60;;;20.00;45.30;;;;;;1829096;78;21208;-61
2022/04/15 13:01:54;;;;;;;5.60;2.27;;;20.00;45.60;;;;;;1828652;77;21581;-63